Warwick, Canada
Current Conditions -  °F | °C
As of 7:36 AM on Friday 24 Oct 2014 (Local Time) from CYSC Reporting Station
Haze Haze  
Wind Chill:   Ceiling: 800
Heat Index:   Visibility: 5mi
Dew Point:   Wind: 7mph
Humidity: 100%   Direction: 20°NNE
Pressure: 29.81"   Gusts: NA
Location:  45.95°N, 71.98°W
Report Text: CYSC 241136Z AUTO 02006KT 350V070 5SM BR BKN008 OVC012 05/05 A2981 RMK SLP103
Loading
Personal Weather Stations






























Interactive Weather Map
Tropical Storm Tracking
New forecast layout! Learn more

10-Day Weather Forecast

Advertisements
Track Severe Weather on mobile